Aviation Digital Data Service (ADDS)

Output produced by TAFs form (0902 UTC 20 October 2017)
found at http://www.aviationweather.gov/adds/tafs/
 
KHSV 200853Z AUTO 08003KT 10SM CLR 09/08 A3025 RMK AO2 SLP240 T00890083 52003 $
KHSV 200520Z 2006/2106 VRB03KT P6SM SKC 
     FM201700 12005KT P6SM FEW250